Decoded Metar for SBSP (SAO PAULO in BRAZIL) (IATA:CGH) | Meteo·Mobile Aviation Weather
aviador You're here:

SBSP Decoded Metar

SAO PAULO in BRAZIL
Report Time2018-12-18 16:00:00
UTC Time2018-12-18 18:06:40
Flight Rules Old
Wind310° at 09 kt
W.Decomp.*RWY 35: 8.5 kt HW 2.9 kt LCW
W.Rank310° ranks 12
Current wind is above 310° avg. (7.8)
Visibility9999 m
Phenomena:N/A
Clouds:N/A
Expected CloudBase > 4,800 ft AGL from Temp-Dew spread
CeilingNone
Temp30°C (ISA +20)
Dew Point18°C (49% RH)
Heat Index30.9°C
AAT29.6°C
QNH1019 hPa
Density Alt5,023 ft
Elevation2,635 ft
Report Wrong Elevation
Raw Report
METAR SBSP 181600Z 31009KT CAVOK 30/18 Q1019=

Extra information for SBSP:More info

Metar Taf Metar & Taf Last 4 Metars F.Rules Stats Wind Profile Meteogram Temp Stats Airport Information Weather charts Add Link Nearby VenuesMetar ALERT Operation Metar Decoded Social comments